Time;durP1;ratioP1;P1;durP2;ratioP2;P2;SDS_P1;SDS_P2;PMS_P1;PMS_P2;Temp;Humidity;BMP_temperature;BMP_pressure;BME280_temperature;BME280_humidity;BME280_pressure;Samples;Min_cycle;Max_cycle;Signal;HPM_P1;HPM_P2
2023/12/26 00:00:52;;;;;;;2.90;0.93;;;9.10;99.90;;;;;;2620807;46;20049;31
2023/12/26 00:03:27;;;;;;;2.83;1.00;;;9.10;99.90;;;;;;2602411;54;20998;31
2023/12/26 00:06:05;;;;;;;3.27;0.97;;;9.10;99.90;;;;;;2620865;46;20031;31
2023/12/26 00:08:40;;;;;;;2.20;1.00;;;9.20;99.90;;;;;;2602706;54;20038;31
2023/12/26 00:11:15;;;;;;;4.70;1.10;;;9.20;99.90;;;;;;2602627;54;20033;31
2023/12/26 00:13:51;;;;;;;2.83;1.10;;;9.20;99.90;;;;;;2602675;54;20753;31
2023/12/26 00:16:26;;;;;;;2.88;0.98;;;9.20;99.90;;;;;;2602653;54;20027;31
2023/12/26 00:19:01;;;;;;;2.47;0.88;;;9.20;99.90;;;;;;2602466;54;20924;31
2023/12/26 00:21:39;;;;;;;3.10;0.90;;;9.20;99.90;;;;;;2602335;54;20884;31
2023/12/26 00:24:14;;;;;;;3.38;1.05;;;9.30;99.90;;;;;;2772196;31;20697;31
2023/12/26 00:26:49;;;;;;;2.70;0.90;;;9.30;99.90;;;;;;2621258;46;20765;31
2023/12/26 00:29:24;;;;;;;2.83;0.77;;;9.30;99.90;;;;;;2602464;54;20872;31
2023/12/26 00:31:59;;;;;;;1.27;0.60;;;9.30;99.90;;;;;;2602522;54;20030;31
2023/12/26 00:34:34;;;;;;;3.10;1.03;;;9.40;99.90;;;;;;2602596;54;20026;31
2023/12/26 00:37:12;;;;;;;;;;;9.40;99.90;;;;;;2602644;54;20912;31
2023/12/26 00:39:48;;;;;;;1.73;0.80;;;9.40;99.90;;;;;;2620984;47;19974;31
2023/12/26 00:42:25;;;;;;;2.53;0.60;;;9.40;99.90;;;;;;2621107;47;20026;31
2023/12/26 00:45:00;;;;;;;2.87;1.10;;;9.40;99.90;;;;;;2603060;54;20026;31
2023/12/26 00:47:35;;;;;;;1.98;0.90;;;9.40;99.90;;;;;;2701784;39;20493;31
2023/12/26 00:50:12;;;;;;;2.28;0.50;;;9.50;99.90;;;;;;2603334;54;20049;31
2023/12/26 00:52:50;;;;;;;3.00;1.15;;;9.50;99.90;;;;;;2719943;39;21078;31
2023/12/26 00:55:25;;;;;;;2.97;1.10;;;9.50;99.90;;;;;;2603136;54;20909;31
2023/12/26 00:58:00;;;;;;;2.60;0.93;;;9.50;99.90;;;;;;2621924;46;20822;31
2023/12/26 01:00:35;;;;;;;1.75;0.90;;;9.50;99.90;;;;;;2603313;54;20769;31
2023/12/26 01:03:10;;;;;;;2.30;0.93;;;9.50;99.90;;;;;;2603000;54;20663;31
2023/12/26 01:05:45;;;;;;;2.03;1.10;;;9.50;99.90;;;;;;2602993;54;20846;31
2023/12/26 01:08:23;;;;;;;3.10;1.25;;;9.50;99.90;;;;;;2603105;54;20038;31
2023/12/26 01:10:58;;;;;;;2.13;1.02;;;9.50;99.90;;;;;;2621850;46;20036;31
2023/12/26 01:13:34;;;;;;;2.22;1.20;;;9.50;99.90;;;;;;2603307;54;20749;31
2023/12/26 01:16:09;;;;;;;1.80;0.67;;;9.50;99.90;;;;;;2603187;54;20037;31
2023/12/26 01:18:44;;;;;;;1.60;0.80;;;9.50;99.90;;;;;;2603347;54;20317;31
2023/12/26 01:21:19;;;;;;;1.90;0.90;;;9.50;99.90;;;;;;2603125;54;20581;31
2023/12/26 01:23:57;;;;;;;4.93;0.75;;;9.60;99.90;;;;;;2620939;46;20027;31
2023/12/26 01:26:32;;;;;;;1.02;0.40;;;9.60;99.90;;;;;;2603033;54;20090;31
2023/12/26 01:29:08;;;;;;;2.03;0.93;;;9.50;99.90;;;;;;2603101;54;20865;31
2023/12/26 01:31:43;;;;;;;1.20;0.40;;;9.50;99.90;;;;;;2621475;46;20656;31
2023/12/26 01:34:18;;;;;;;1.30;0.40;;;9.50;99.90;;;;;;2603066;54;20890;31
2023/12/26 01:36:53;;;;;;;1.80;0.70;;;9.50;99.90;;;;;;2621473;46;20031;31
2023/12/26 01:39:31;;;;;;;2.10;0.55;;;9.60;99.90;;;;;;2603080;54;20133;31
2023/12/26 01:42:06;;;;;;;1.05;0.47;;;9.60;99.90;;;;;;2603008;54;20037;31
2023/12/26 01:44:41;;;;;;;2.92;1.48;;;9.60;99.90;;;;;;2701226;39;20594;31
2023/12/26 01:47:16;;;;;;;3.85;0.60;;;9.60;99.90;;;;;;2602832;54;20027;31
2023/12/26 01:49:51;;;;;;;2.75;0.60;;;9.60;99.90;;;;;;2701332;39;21343;31
2023/12/26 01:52:26;;;;;;;1.47;0.50;;;9.50;99.90;;;;;;2602912;54;20885;31
2023/12/26 01:55:04;;;;;;;1.90;0.75;;;9.60;99.90;;;;;;2602629;54;20315;31
2023/12/26 01:57:39;;;;;;;3.13;0.70;;;9.60;99.90;;;;;;2602835;54;20615;31
2023/12/26 02:00:15;;;;;;;1.93;0.50;;;9.60;99.90;;;;;;2602986;54;20069;31
2023/12/26 02:02:49;;;;;;;;;;;9.60;99.90;;;;;;2603330;54;20037;31
2023/12/26 02:05:24;;;;;;;1.87;0.70;;;9.60;99.90;;;;;;2603109;54;19934;31
2023/12/26 02:07:57;;;;;;;2.05;1.00;;;9.60;99.90;;;;;;2621427;46;21366;31
2023/12/26 02:10:34;;;;;;;1.88;1.00;;;9.60;99.90;;;;;;2603012;54;20030;31
2023/12/26 02:13:09;;;;;;;2.38;1.42;;;9.60;99.90;;;;;;2602898;54;20577;31
2023/12/26 02:15:44;;;;;;;2.70;1.00;;;9.60;99.90;;;;;;2602796;54;20065;31
2023/12/26 02:18:19;;;;;;;4.03;1.45;;;9.60;99.90;;;;;;2602885;54;21488;31
2023/12/26 02:20:54;;;;;;;2.33;1.00;;;9.60;99.90;;;;;;2603037;54;20092;31
2023/12/26 02:23:29;;;;;;;4.63;1.63;;;9.60;99.90;;;;;;2602998;54;20889;31
2023/12/26 02:26:07;;;;;;;3.30;0.98;;;9.60;99.90;;;;;;2603031;54;20062;31
2023/12/26 02:31:13;;;;;;;2.65;1.05;;;9.60;99.90;;;;;;2602795;54;20085;31
2023/12/26 02:33:48;;;;;;;2.20;0.80;;;9.70;99.90;;;;;;2621718;46;20536;31
2023/12/26 02:36:23;;;;;;;1.92;0.75;;;9.60;99.90;;;;;;2602727;54;20869;31
2023/12/26 02:38:58;;;;;;;1.93;0.87;;;9.60;99.90;;;;;;2602685;54;20030;31
2023/12/26 02:41:36;;;;;;;1.67;0.85;;;9.70;99.90;;;;;;2621623;46;20768;31
2023/12/26 02:44:11;;;;;;;2.80;0.90;;;9.70;99.90;;;;;;2621311;46;20042;31
2023/12/26 02:46:48;;;;;;;1.85;0.90;;;9.70;99.90;;;;;;2621189;46;20767;31
2023/12/26 02:49:24;;;;;;;2.30;0.85;;;9.70;99.90;;;;;;2621300;46;20116;31
2023/12/26 02:51:59;;;;;;;1.77;0.70;;;9.70;99.90;;;;;;2602969;54;20030;31
2023/12/26 02:54:34;;;;;;;3.50;0.90;;;9.70;99.90;;;;;;2602805;54;20897;31
2023/12/26 02:57:10;;;;;;;1.60;0.70;;;9.70;99.90;;;;;;2701403;39;20390;31
2023/12/26 02:59:45;;;;;;;1.20;0.50;;;9.70;99.90;;;;;;2602775;54;20031;31
2023/12/26 03:02:21;;;;;;;1.02;0.60;;;9.80;99.90;;;;;;2602860;54;20031;31
2023/12/26 03:04:56;;;;;;;2.17;0.70;;;9.70;99.90;;;;;;2602700;54;20040;31
2023/12/26 03:07:31;;;;;;;2.15;0.90;;;9.80;99.90;;;;;;2621528;46;20910;31
2023/12/26 03:10:09;;;;;;;1.90;0.60;;;9.80;99.90;;;;;;2602959;54;20026;31
2023/12/26 03:12:46;;;;;;;0.73;0.40;;;9.80;99.90;;;;;;2602893;54;20031;31
2023/12/26 03:15:21;;;;;;;1.20;0.60;;;9.70;99.90;;;;;;2602558;54;20777;31
2023/12/26 03:17:56;;;;;;;2.53;0.73;;;9.70;99.90;;;;;;2602681;54;20049;31
2023/12/26 03:20:31;;;;;;;0.53;0.33;;;9.80;99.90;;;;;;2620928;46;21085;31
2023/12/26 03:23:04;;;;;;;1.15;0.45;;;9.80;99.90;;;;;;2621184;46;21140;31
2023/12/26 03:25:39;;;;;;;2.03;0.40;;;9.80;99.90;;;;;;2602623;54;20901;31
2023/12/26 03:28:16;;;;;;;1.05;0.50;;;9.80;99.90;;;;;;2620941;46;20900;31
2023/12/26 03:30:51;;;;;;;0.85;0.45;;;9.90;99.90;;;;;;2602716;54;20106;31
2023/12/26 03:33:26;;;;;;;0.50;0.20;;;9.90;99.90;;;;;;2602890;54;20038;31
2023/12/26 03:36:04;;;;;;;1.30;0.50;;;9.90;99.90;;;;;;2602848;54;20976;31
2023/12/26 03:38:38;;;;;;;0.77;0.30;;;9.90;99.90;;;;;;2602795;54;20030;31
2023/12/26 03:41:13;;;;;;;0.30;0.20;;;9.90;99.90;;;;;;2602654;54;20027;31
2023/12/26 03:43:50;;;;;;;0.40;0.20;;;9.90;99.90;;;;;;2602831;54;20869;31
2023/12/26 03:46:25;;;;;;;0.60;0.30;;;10.00;99.90;;;;;;2602606;54;20083;31
2023/12/26 03:49:00;;;;;;;1.05;0.20;;;9.90;99.90;;;;;;2602807;54;20874;31
2023/12/26 03:51:35;;;;;;;0.77;0.28;;;10.00;99.90;;;;;;2602715;54;20725;31
2023/12/26 03:54:10;;;;;;;1.15;0.20;;;10.00;99.90;;;;;;2620925;46;20905;31
2023/12/26 03:56:45;;;;;;;0.93;0.20;;;10.00;99.90;;;;;;2602801;54;20078;31
2023/12/26 03:59:22;;;;;;;0.65;0.20;;;10.00;99.90;;;;;;2602664;54;20089;31
2023/12/26 04:01:57;;;;;;;0.30;0.10;;;10.00;99.90;;;;;;2602771;54;20876;31
2023/12/26 04:04:32;;;;;;;0.40;0.20;;;10.10;99.90;;;;;;2602753;54;20884;31
2023/12/26 04:07:07;;;;;;;0.40;0.10;;;10.10;99.90;;;;;;2602613;54;20081;31
2023/12/26 04:09:44;;;;;;;0.63;0.20;;;10.10;99.90;;;;;;2602733;54;20871;31
2023/12/26 04:12:19;;;;;;;0.28;0.10;;;10.10;99.90;;;;;;2602726;54;20049;31
2023/12/26 04:14:56;;;;;;;0.40;0.20;;;10.20;99.90;;;;;;2602477;54;20034;31
2023/12/26 04:17:31;;;;;;;0.57;0.20;;;10.10;99.90;;;;;;2602229;54;20192;31
2023/12/26 04:20:06;;;;;;;0.63;0.20;;;10.20;99.90;;;;;;2602721;54;20902;31
2023/12/26 04:22:41;;;;;;;0.35;0.05;;;10.20;99.90;;;;;;2602326;54;20816;31
2023/12/26 04:25:18;;;;;;;0.30;0.10;;;10.20;99.90;;;;;;2620886;46;20819;31
2023/12/26 04:27:53;;;;;;;1.55;0.10;;;10.20;99.90;;;;;;2602562;54;20109;31
2023/12/26 04:30:31;;;;;;;0.60;0.10;;;10.20;99.90;;;;;;2621309;46;20026;31
2023/12/26 04:33:07;;;;;;;0.70;0.10;;;10.30;99.90;;;;;;2602523;54;20034;31
2023/12/26 04:35:42;;;;;;;0.30;0.00;;;10.30;99.90;;;;;;2602554;54;20868;31
2023/12/26 04:38:17;;;;;;;0.63;0.10;;;10.30;99.90;;;;;;2621183;47;20096;31
2023/12/26 04:40:52;;;;;;;0.95;0.10;;;10.30;99.90;;;;;;2602450;54;20964;31
2023/12/26 04:43:27;;;;;;;0.30;0.10;;;10.30;99.90;;;;;;2602536;54;20857;31
2023/12/26 04:46:03;;;;;;;0.50;0.43;;;10.40;99.90;;;;;;2700857;39;21320;31
2023/12/26 04:48:40;;;;;;;0.52;0.30;;;10.40;99.90;;;;;;2620894;47;20037;31
2023/12/26 04:51:12;;;;;;;0.68;0.20;;;10.40;99.90;;;;;;2620809;46;21861;31
2023/12/26 04:53:47;;;;;;;0.75;0.10;;;10.40;99.90;;;;;;2602610;54;20027;31
2023/12/26 04:56:22;;;;;;;0.63;0.63;;;10.40;99.90;;;;;;2602575;54;20918;31
2023/12/26 04:58:57;;;;;;;0.15;0.08;;;10.40;99.90;;;;;;2602388;54;20027;31
2023/12/26 05:01:34;;;;;;;0.10;0.00;;;10.40;99.90;;;;;;2602317;54;20037;31
2023/12/26 05:04:10;;;;;;;0.10;0.00;;;10.40;99.90;;;;;;2602294;54;20869;31
2023/12/26 05:06:45;;;;;;;0.30;0.10;;;10.40;99.90;;;;;;2602303;54;20596;31
2023/12/26 05:09:20;;;;;;;0.10;0.10;;;10.50;99.90;;;;;;2602342;54;20753;31
2023/12/26 05:11:55;;;;;;;0.22;0.10;;;10.50;99.90;;;;;;2602487;54;21505;31
2023/12/26 05:14:30;;;;;;;0.10;0.03;;;10.50;99.90;;;;;;2602549;54;20026;31
2023/12/26 05:17:07;;;;;;;0.30;0.10;;;10.50;99.90;;;;;;2602597;54;20085;31
2023/12/26 05:19:42;;;;;;;0.43;0.10;;;10.50;99.90;;;;;;2602202;54;20031;31
2023/12/26 05:22:17;;;;;;;0.20;0.05;;;10.50;99.90;;;;;;2602233;54;20050;31
2023/12/26 05:24:52;;;;;;;0.15;0.00;;;10.50;99.90;;;;;;2620708;47;20022;31
2023/12/26 05:27:28;;;;;;;0.10;0.10;;;10.50;99.90;;;;;;2602471;54;20715;31
2023/12/26 05:30:03;;;;;;;0.50;0.10;;;10.50;99.90;;;;;;2621589;46;20022;31
2023/12/26 05:32:40;;;;;;;0.30;0.10;;;10.50;99.90;;;;;;2603220;54;20038;31
2023/12/26 05:35:16;;;;;;;0.28;0.03;;;10.50;99.90;;;;;;2621966;46;20027;31
2023/12/26 05:37:51;;;;;;;0.35;0.10;;;10.50;99.90;;;;;;2602938;54;20022;31
2023/12/26 05:40:26;;;;;;;1.23;0.10;;;10.60;99.90;;;;;;2621731;46;20930;31
2023/12/26 05:43:01;;;;;;;0.30;0.00;;;10.60;99.90;;;;;;2603100;54;20876;31
2023/12/26 05:45:36;;;;;;;0.37;0.13;;;10.60;99.90;;;;;;2603178;54;20866;31
2023/12/26 05:48:13;;;;;;;0.35;0.05;;;10.50;99.90;;;;;;2603081;54;21091;31
2023/12/26 05:50:49;;;;;;;0.10;0.10;;;10.50;99.90;;;;;;2621236;46;20896;31
2023/12/26 05:53:26;;;;;;;0.30;0.00;;;10.60;99.90;;;;;;2621403;46;20868;31
2023/12/26 05:56:01;;;;;;;0.20;0.00;;;10.60;99.90;;;;;;2603022;54;20889;31
2023/12/26 05:58:36;;;;;;;0.05;0.00;;;10.60;99.90;;;;;;2603306;54;20798;31
2023/12/26 06:01:14;;;;;;;0.20;0.00;;;10.60;99.90;;;;;;2603118;54;20053;31
2023/12/26 06:03:51;;;;;;;0.35;0.10;;;10.60;99.90;;;;;;2603288;54;20843;31
2023/12/26 06:06:26;;;;;;;0.13;0.00;;;10.60;99.90;;;;;;2603072;54;20144;31
2023/12/26 06:09:01;;;;;;;0.27;0.10;;;10.60;99.90;;;;;;2602933;54;20803;31
2023/12/26 06:11:36;;;;;;;0.03;0.00;;;10.60;99.90;;;;;;2603152;54;20031;31
2023/12/26 06:14:11;;;;;;;0.75;0.10;;;10.60;99.90;;;;;;2603155;54;20053;31
2023/12/26 06:16:46;;;;;;;1.50;0.10;;;10.60;99.90;;;;;;2603094;54;20885;31
2023/12/26 06:19:23;;;;;;;0.50;0.00;;;10.60;99.90;;;;;;2621388;46;20100;31
2023/12/26 06:21:59;;;;;;;0.30;0.08;;;10.60;99.90;;;;;;2602849;54;20121;31
2023/12/26 06:24:35;;;;;;;0.03;0.00;;;10.60;99.90;;;;;;2602870;54;20082;31
2023/12/26 06:27:10;;;;;;;0.10;0.00;;;10.60;99.90;;;;;;2621376;46;20136;31
2023/12/26 06:29:45;;;;;;;0.10;0.00;;;10.60;99.90;;;;;;2603140;54;20026;31
2023/12/26 06:32:20;;;;;;;0.15;0.10;;;10.60;99.90;;;;;;2602999;54;21113;31
2023/12/26 06:34:57;;;;;;;1.13;0.13;;;10.60;99.90;;;;;;2603012;54;20860;31
2023/12/26 06:37:32;;;;;;;1.30;0.10;;;10.60;99.90;;;;;;2621249;46;20026;31
2023/12/26 06:40:08;;;;;;;0.10;0.00;;;10.50;99.90;;;;;;2621123;46;20081;31
2023/12/26 06:42:44;;;;;;;0.50;0.10;;;10.60;99.90;;;;;;2621299;46;20029;31
2023/12/26 06:45:19;;;;;;;0.10;0.08;;;10.60;99.90;;;;;;2602791;54;20151;31
2023/12/26 06:47:54;;;;;;;0.55;0.10;;;10.60;99.90;;;;;;2603042;54;20036;31
2023/12/26 06:50:31;;;;;;;0.38;0.20;;;10.60;99.90;;;;;;2719688;39;21078;31
2023/12/26 06:53:06;;;;;;;0.25;0.00;;;10.60;99.90;;;;;;2602799;54;20149;31
2023/12/26 06:55:41;;;;;;;0.13;0.07;;;10.60;99.90;;;;;;2602765;54;20026;31
2023/12/26 06:58:15;;;;;;;0.32;0.10;;;10.60;99.90;;;;;;2603020;54;20280;31
2023/12/26 07:00:50;;;;;;;0.70;0.30;;;10.60;99.90;;;;;;2602563;54;20030;31
2023/12/26 07:03:25;;;;;;;1.13;0.10;;;10.60;99.90;;;;;;2603002;54;20250;31
2023/12/26 07:06:02;;;;;;;0.32;0.10;;;10.60;99.90;;;;;;2602904;54;20755;31
2023/12/26 07:08:37;;;;;;;0.20;0.05;;;10.60;99.90;;;;;;2603019;54;20023;31
2023/12/26 07:11:12;;;;;;;0.40;0.03;;;10.60;99.90;;;;;;2602835;54;20065;31
2023/12/26 07:13:47;;;;;;;0.25;0.10;;;10.50;99.90;;;;;;2719496;39;20529;31
2023/12/26 07:16:22;;;;;;;0.40;0.20;;;10.50;99.90;;;;;;2602904;54;21637;31
2023/12/26 07:18:58;;;;;;;0.40;0.10;;;10.50;99.90;;;;;;2602913;54;20776;31
2023/12/26 07:21:36;;;;;;;2.95;0.10;;;10.50;99.90;;;;;;2602615;54;20109;31
2023/12/26 07:24:12;;;;;;;2.05;0.20;;;10.50;99.90;;;;;;2602815;54;20854;31
2023/12/26 07:26:47;;;;;;;1.05;0.20;;;10.50;99.90;;;;;;2602694;54;20033;31
2023/12/26 07:29:23;;;;;;;0.40;0.10;;;10.50;99.90;;;;;;2602503;54;20030;31
2023/12/26 07:31:58;;;;;;;0.80;0.30;;;10.50;99.90;;;;;;2602596;54;20776;31
2023/12/26 07:34:33;;;;;;;0.60;0.20;;;10.50;99.90;;;;;;2621182;46;21473;31
2023/12/26 07:37:11;;;;;;;0.30;0.10;;;10.50;99.90;;;;;;2602917;54;20254;31
2023/12/26 07:39:46;;;;;;;1.73;0.10;;;10.50;99.90;;;;;;2621042;46;20892;31
2023/12/26 07:42:21;;;;;;;1.48;0.22;;;10.50;99.90;;;;;;2602599;54;20059;31
2023/12/26 07:44:56;;;;;;;0.40;0.10;;;10.50;99.90;;;;;;2602669;54;20026;31
2023/12/26 07:47:31;;;;;;;0.50;0.20;;;10.50;99.90;;;;;;2602577;54;20172;31
2023/12/26 07:50:08;;;;;;;0.20;0.20;;;10.60;99.90;;;;;;2602796;54;20904;31
2023/12/26 07:52:46;;;;;;;1.10;0.28;;;10.50;99.90;;;;;;2602344;54;20030;31
2023/12/26 07:55:21;;;;;;;1.02;0.28;;;10.60;99.90;;;;;;2602679;54;21481;31
2023/12/26 07:57:56;;;;;;;1.10;0.30;;;10.60;99.90;;;;;;2621088;46;20026;31
2023/12/26 08:00:31;;;;;;;2.27;0.30;;;10.60;99.90;;;;;;2700710;39;21388;31
2023/12/26 08:03:07;;;;;;;0.60;0.22;;;10.60;99.90;;;;;;2602673;54;20109;31
2023/12/26 08:05:42;;;;;;;0.40;0.20;;;10.70;99.90;;;;;;2602584;54;20026;31
2023/12/26 08:08:19;;;;;;;0.87;0.20;;;10.70;99.90;;;;;;2602771;54;20876;31
2023/12/26 08:10:54;;;;;;;0.75;0.10;;;10.70;99.90;;;;;;2602803;54;20884;31
2023/12/26 08:13:29;;;;;;;0.95;0.30;;;10.80;99.90;;;;;;2602223;54;20536;31
2023/12/26 08:16:05;;;;;;;0.30;0.10;;;10.80;99.90;;;;;;2602496;54;20603;31
2023/12/26 08:18:40;;;;;;;0.50;0.20;;;10.90;99.90;;;;;;2602480;54;20783;31
2023/12/26 08:21:15;;;;;;;0.90;0.30;;;10.90;99.90;;;;;;2602745;54;20155;31
2023/12/26 08:23:53;;;;;;;0.83;0.23;;;10.90;99.90;;;;;;2602702;54;20540;31
2023/12/26 08:26:33;;;;;;;0.20;0.10;;;11.00;99.90;;;;;;2602412;54;20056;31
2023/12/26 08:29:11;;;;;;;0.43;0.10;;;11.00;99.90;;;;;;2602446;54;20026;31
2023/12/26 08:31:46;;;;;;;0.63;0.20;;;11.00;99.90;;;;;;2602671;54;20077;31
2023/12/26 08:34:21;;;;;;;0.60;0.30;;;11.00;99.90;;;;;;2700895;39;20409;31
2023/12/26 08:36:56;;;;;;;0.85;0.38;;;11.10;99.90;;;;;;2602382;54;20250;31
2023/12/26 08:39:34;;;;;;;1.23;0.30;;;11.10;99.90;;;;;;2602470;54;20027;31
2023/12/26 08:42:11;;;;;;;0.55;0.20;;;11.10;99.90;;;;;;2620925;47;20841;31
2023/12/26 08:44:46;;;;;;;0.60;0.20;;;11.10;99.90;;;;;;2602166;54;20089;31
2023/12/26 08:47:21;;;;;;;0.80;0.20;;;11.10;99.90;;;;;;2620923;47;20058;31
2023/12/26 08:49:56;;;;;;;0.60;0.20;;;11.20;99.90;;;;;;2602602;54;20054;31
2023/12/26 08:52:32;;;;;;;0.73;0.25;;;11.20;99.90;;;;;;2621218;47;20238;31
2023/12/26 08:55:10;;;;;;;0.80;0.20;;;11.20;99.90;;;;;;2602525;54;20026;31
2023/12/26 08:57:45;;;;;;;0.75;0.30;;;11.30;99.90;;;;;;2610437;47;20048;31
2023/12/26 09:00:21;;;;;;;0.90;0.38;;;11.30;99.90;;;;;;2602489;54;20609;31
2023/12/26 09:02:56;;;;;;;0.80;0.30;;;11.30;99.90;;;;;;2602395;54;20605;31
2023/12/26 09:05:40;;;;;;;1.00;0.30;;;11.30;99.90;;;;;;2622155;46;20026;31
2023/12/26 09:08:16;;;;;;;1.35;0.20;;;11.30;99.90;;;;;;2603356;54;20858;31
2023/12/26 09:10:50;;;;;;;0.95;0.40;;;11.40;99.90;;;;;;2603358;54;20027;31
2023/12/26 09:13:28;;;;;;;1.23;0.20;;;11.40;99.90;;;;;;2621978;46;20837;31
2023/12/26 09:16:04;;;;;;;0.95;0.30;;;11.40;99.90;;;;;;2603150;54;20899;31
2023/12/26 09:18:39;;;;;;;1.25;0.35;;;11.40;99.90;;;;;;2603106;54;20033;31
2023/12/26 09:21:16;;;;;;;1.10;0.20;;;11.40;99.90;;;;;;2603279;54;20132;31
2023/12/26 09:23:51;;;;;;;0.82;0.32;;;11.50;99.90;;;;;;2603258;54;20033;31
2023/12/26 09:26:26;;;;;;;0.82;0.22;;;11.50;99.90;;;;;;2621500;46;20112;31
2023/12/26 09:29:04;;;;;;;0.47;0.20;;;11.50;99.90;;;;;;2603381;54;20149;31
2023/12/26 09:31:39;;;;;;;0.90;0.20;;;11.50;99.90;;;;;;2603251;54;20031;31
2023/12/26 09:34:14;;;;;;;0.70;0.28;;;11.50;99.90;;;;;;2603155;54;20966;31
2023/12/26 09:36:49;;;;;;;0.60;0.20;;;11.50;99.90;;;;;;2603183;54;20053;31
2023/12/26 09:39:24;;;;;;;1.40;0.20;;;11.60;99.90;;;;;;2603138;54;20085;31
2023/12/26 09:41:59;;;;;;;1.27;0.40;;;11.60;99.90;;;;;;2603085;54;20107;31
2023/12/26 09:44:37;;;;;;;1.37;0.40;;;11.60;99.90;;;;;;2603169;54;20101;31
2023/12/26 09:47:12;;;;;;;0.60;0.10;;;11.70;99.90;;;;;;2621439;46;20030;31
2023/12/26 09:49:47;;;;;;;0.60;0.30;;;11.70;99.90;;;;;;2603134;54;20858;31
2023/12/26 09:52:23;;;;;;;2.10;0.20;;;11.70;99.90;;;;;;2603118;54;20776;31
2023/12/26 09:54:59;;;;;;;0.47;0.25;;;11.80;99.90;;;;;;2603020;54;20924;31
2023/12/26 09:57:34;;;;;;;0.40;0.10;;;11.80;99.90;;;;;;2621675;46;20928;31
2023/12/26 10:00:14;;;;;;;0.90;0.40;;;11.80;99.90;;;;;;2621458;46;20093;31
2023/12/26 10:02:51;;;;;;;1.52;0.40;;;11.80;99.90;;;;;;2621447;46;20777;31
2023/12/26 10:05:27;;;;;;;1.05;0.50;;;11.90;99.90;;;;;;2603165;54;20121;31
2023/12/26 10:08:02;;;;;;;1.70;0.40;;;11.90;99.90;;;;;;2603135;54;20037;31
2023/12/26 10:10:37;;;;;;;1.60;0.25;;;11.90;99.90;;;;;;2602946;54;20033;31
2023/12/26 10:13:12;;;;;;;0.90;0.13;;;11.90;99.90;;;;;;2603414;54;20030;31
2023/12/26 10:18:25;;;;;;;1.80;0.80;;;11.90;99.90;;;;;;2621540;46;20034;31
2023/12/26 10:21:12;;;;;;;2.72;0.90;;;11.90;99.90;;;;;;2621601;46;20048;31
2023/12/26 10:23:48;;;;;;;1.58;0.75;;;11.90;99.90;;;;;;2621027;46;20030;31
2023/12/26 10:26:23;;;;;;;0.77;0.22;;;11.90;99.90;;;;;;2621217;46;20768;31
2023/12/26 10:28:59;;;;;;;0.80;0.20;;;11.90;99.90;;;;;;2603024;54;20989;31
2023/12/26 10:31:34;;;;;;;0.60;0.30;;;11.90;99.90;;;;;;2603186;54;20445;31
2023/12/26 10:34:19;;;;;;;0.40;0.40;;;11.90;99.90;;;;;;2603005;54;20210;31
2023/12/26 10:39:29;;;;;;;0.40;0.20;;;11.90;99.90;;;;;;2602938;54;20125;31
2023/12/26 10:42:04;;;;;;;0.60;0.20;;;11.90;99.90;;;;;;2602685;54;20058;31
2023/12/26 10:44:49;;;;;;;0.85;0.35;;;11.80;99.90;;;;;;2602955;54;20029;31
2023/12/26 10:47:24;;;;;;;0.85;0.30;;;11.80;99.90;;;;;;2621712;46;20037;31
2023/12/26 10:50:03;;;;;;;0.55;0.20;;;11.80;99.90;;;;;;2621478;46;20105;31
2023/12/26 10:52:41;;;;;;;2.42;1.08;;;11.80;99.90;;;;;;2602918;54;20053;31
2023/12/26 10:55:35;;;;;;;2.50;0.90;;;11.80;99.90;;;;;;2603206;54;20025;31
2023/12/26 10:58:28;;;;;;;3.53;0.30;;;11.80;99.90;;;;;;2621527;46;20236;31
2023/12/26 11:01:32;;;;;;;0.65;0.35;;;11.70;99.90;;;;;;2621249;46;20584;31
2023/12/26 11:04:56;;;;;;;1.80;0.50;;;11.60;99.90;;;;;;2603045;54;20033;31
2023/12/26 11:08:17;;;;;;;0.95;0.15;;;11.20;99.90;;;;;;2602950;54;20049;31
2023/12/26 11:11:41;;;;;;;0.85;0.35;;;10.80;99.90;;;;;;2602917;54;20104;31
2023/12/26 11:15:02;;;;;;;0.50;0.30;;;10.50;99.90;;;;;;2602983;54;20028;31
2023/12/26 11:18:12;;;;;;;2.10;0.75;;;10.30;99.90;;;;;;2602937;54;20072;31
2023/12/26 11:21:02;;;;;;;2.00;0.95;;;10.20;99.90;;;;;;2602906;54;20921;31
2023/12/26 11:24:26;;;;;;;2.67;0.40;;;10.10;99.90;;;;;;2602737;54;20872;31
2023/12/26 11:27:47;;;;;;;0.10;0.10;;;10.10;99.90;;;;;;2701478;39;20449;31
2023/12/26 11:34:01;;;;;;;0.60;0.10;;;10.10;99.90;;;;;;2602845;54;20867;31
2023/12/26 11:37:21;;;;;;;2.10;0.20;;;10.20;99.90;;;;;;2602847;54;20797;31
2023/12/26 11:40:44;;;;;;;1.17;0.30;;;10.20;99.90;;;;;;2602898;54;20936;31
2023/12/26 11:44:04;;;;;;;0.60;0.20;;;10.20;99.90;;;;;;2602719;54;20753;31
2023/12/26 11:47:28;;;;;;;0.87;0.20;;;10.20;99.90;;;;;;2602811;54;20029;31
2023/12/26 11:50:37;;;;;;;0.95;0.30;;;10.20;99.90;;;;;;2602865;54;21259;31
2023/12/26 11:54:00;;;;;;;2.40;0.40;;;10.20;99.90;;;;;;2602629;54;20029;31
2023/12/26 11:57:20;;;;;;;1.55;0.20;;;10.10;99.90;;;;;;2602912;54;20304;31
2023/12/26 12:00:13;;;;;;;1.07;0.20;;;10.10;99.90;;;;;;2602970;54;20944;31
2023/12/26 12:03:33;;;;;;;1.30;0.30;;;10.10;99.90;;;;;;2772473;31;20639;31
2023/12/26 12:06:57;;;;;;;0.65;0.20;;;10.10;99.90;;;;;;2602544;54;20869;31
2023/12/26 12:10:17;;;;;;;0.70;0.32;;;10.10;99.90;;;;;;2602701;54;20033;31
2023/12/26 12:13:40;;;;;;;1.20;0.20;;;10.10;99.90;;;;;;2602651;54;20048;31
2023/12/26 12:17:01;;;;;;;0.50;0.20;;;10.20;99.90;;;;;;2602776;54;20245;31
2023/12/26 12:19:54;;;;;;;1.70;0.30;;;10.20;99.90;;;;;;2602590;54;20112;31
2023/12/26 12:23:14;;;;;;;1.73;0.43;;;10.20;99.90;;;;;;2602521;54;20874;31
2023/12/26 12:26:07;;;;;;;0.60;0.40;;;10.20;99.90;;;;;;2602784;54;20803;31
2023/12/26 12:29:27;;;;;;;2.13;0.43;;;10.30;99.90;;;;;;2602470;54;20899;31
2023/12/26 12:32:50;;;;;;;1.43;0.50;;;10.20;99.90;;;;;;2602581;54;20077;31
2023/12/26 12:36:11;;;;;;;4.03;0.80;;;10.20;99.90;;;;;;2602543;54;20956;31
2023/12/26 12:42:22;;;;;;;1.55;0.70;;;10.10;99.90;;;;;;2602781;54;21933;31
2023/12/26 12:45:42;;;;;;;2.70;0.83;;;10.00;99.90;;;;;;2602524;54;20080;31
2023/12/26 12:48:33;;;;;;;1.70;0.50;;;10.00;99.90;;;;;;2602488;54;20792;31
2023/12/26 12:51:54;;;;;;;3.22;0.60;;;10.00;99.90;;;;;;2602563;54;20085;31
2023/12/26 12:55:18;;;;;;;2.20;0.35;;;10.00;99.90;;;;;;2602451;54;20852;31
2023/12/26 12:58:38;;;;;;;0.85;0.30;;;9.90;99.90;;;;;;2602477;54;20068;31
2023/12/26 13:01:31;;;;;;;2.38;0.30;;;9.90;99.90;;;;;;2602625;54;20238;31
2023/12/26 13:04:51;;;;;;;1.83;0.50;;;9.80;99.90;;;;;;2602471;54;20085;31
2023/12/26 13:11:05;;;;;;;1.75;0.30;;;9.90;99.90;;;;;;2602453;54;20813;31
2023/12/26 13:14:26;;;;;;;2.05;0.30;;;9.90;99.90;;;;;;2602553;54;20026;31
2023/12/26 13:17:19;;;;;;;2.30;0.33;;;9.90;99.90;;;;;;2602557;54;20023;31
2023/12/26 13:20:40;;;;;;;1.38;0.40;;;9.90;99.90;;;;;;2602322;54;21208;31
2023/12/26 13:24:04;;;;;;;0.82;0.30;;;9.90;99.90;;;;;;2602385;54;20746;31
2023/12/26 13:27:25;;;;;;;1.33;0.50;;;9.90;99.90;;;;;;2602321;54;20026;31
2023/12/26 13:30:49;;;;;;;1.60;0.60;;;9.90;99.90;;;;;;2602413;54;20027;31
2023/12/26 13:34:10;;;;;;;3.00;1.02;;;9.90;99.90;;;;;;2602263;54;20226;31
2023/12/26 13:37:34;;;;;;;4.07;1.20;;;9.90;99.90;;;;;;2602386;54;20022;31
2023/12/26 13:40:54;;;;;;;5.60;1.75;;;9.90;99.90;;;;;;2602270;54;20461;31
2023/12/26 13:44:18;;;;;;;4.40;1.77;;;9.80;99.90;;;;;;2700667;39;20338;31
2023/12/26 13:47:38;;;;;;;2.77;1.10;;;9.80;99.90;;;;;;2602423;54;20899;31
2023/12/26 13:51:01;;;;;;;4.20;1.13;;;9.80;99.90;;;;;;2602565;54;20454;31
2023/12/26 13:54:00;;;;;;;1.83;0.90;;;9.80;99.90;;;;;;2603063;54;20234;31
2023/12/26 13:57:06;;;;;;;2.63;0.57;;;9.70;99.90;;;;;;2602613;54;20030;31
2023/12/26 13:59:39;;;;;;;2.25;1.00;;;9.80;99.90;;;;;;2603297;54;20806;31
2023/12/26 14:02:45;;;;;;;2.97;0.85;;;9.70;99.90;;;;;;2602805;54;20030;31
2023/12/26 14:05:20;;;;;;;2.05;0.70;;;9.70;99.90;;;;;;2602688;54;20880;31
2023/12/26 14:08:25;;;;;;;2.67;0.80;;;9.70;99.90;;;;;;2602682;54;20824;31
2023/12/26 14:11:04;;;;;;;1.55;0.75;;;9.60;99.90;;;;;;2602898;54;21193;31
2023/12/26 14:14:09;;;;;;;2.35;0.73;;;9.60;99.90;;;;;;2602884;54;20932;31
2023/12/26 14:16:46;;;;;;;2.50;0.90;;;9.60;99.90;;;;;;2603004;54;20054;31
2023/12/26 14:19:51;;;;;;;2.50;0.70;;;9.60;99.90;;;;;;2602848;54;20026;31
2023/12/26 14:22:26;;;;;;;2.22;0.80;;;9.60;99.90;;;;;;2602790;54;20784;31
2023/12/26 14:25:32;;;;;;;6.65;1.05;;;9.50;99.90;;;;;;2602892;54;20827;31
2023/12/26 14:28:10;;;;;;;3.50;1.20;;;9.60;99.90;;;;;;2621065;46;20770;31
2023/12/26 14:31:15;;;;;;;4.10;1.20;;;9.60;99.90;;;;;;2602701;54;20639;31
2023/12/26 14:33:49;;;;;;;4.45;1.50;;;9.60;99.90;;;;;;2621129;46;20763;31
2023/12/26 14:36:24;;;;;;;2.75;1.00;;;9.60;99.90;;;;;;2602848;54;20985;31
2023/12/26 14:39:29;;;;;;;2.80;1.05;;;9.60;99.90;;;;;;2602652;54;20109;31
2023/12/26 14:42:04;;;;;;;3.92;1.25;;;9.60;99.90;;;;;;2602781;54;20026;31